Terminal Aerodrome Forecast
Issued by NWS Cleveland, OH

Home | Current Version | Previous Version | Text Only | Print | Product List | Glossary Off
Versions: 1 2 3 4 5 6 7 8 9 10 11 12 13 14 15 16 17 18 19

000
FTUS41 KCLE 210000 AAA
TAFTOL
TAF AMD
KTOL 210055Z 2101/2124 22010KT 6SM -RA VCTS SCT035CB OVC100
      TEMPO 2101/2102 4SM -RA BR BKN030
     FM210400 23011KT 6SM BR VCSH SCT020 BKN035
      TEMPO 2108/2112 4SM -SHRA BR SCT009 OVC015
     FM211500 28012KT P6SM BKN035
     FM211900 32015G22KT P6SM VCSH BKN035=

USA.gov is the U.S. government's official web portal to all federal, state and local government web resources and services.